Impacts METAR Board
IDs:

KIAH - Houston/Bush Intl, TX, US

Updated at: 0300 UTC 23 May 2018
Potential Impact None Slight Moderate High
Time 22/15Z 22/16Z 22/17Z 22/18Z 22/19Z 22/20Z 22/21Z 22/22Z 22/23Z 23/00Z 23/01Z 23/02Z 23/03Z
Temp81 83 84 85 88 89 86 85 77 78 78 75 75
Dewpt74 75 73 71 72 70 70 71 72 74 73 71 72
Altim30.04 30.02 30.02 30.00 29.97 29.95 29.94 29.93 29.93 29.93 29.94 29.95 29.97
VIS10 10 10 10 10 10 10 10 10 10 10 10 10
CIG250 250 250 38 40 45 75 70 70 180 250 -- --
CoverBKNBKNBKNBKNBKNBKNBKNBKNBKNBKNBKNSCTSCT
FltCatVFRVFRVFRVFRVFRVFRVFRVFRVFRVFRVFRVFRVFR
WX----------------TS--------
WDir6013014012035002300080400150
WSpd3 4 3 5 7 0 7 0 0 5 3 3 3
WGst-- -- -- -- -- -- -- -- -- -- -- -- --
Raw hourly METARs
KIAH 221453Z 06003KT 10SM FEW028 SCT150 BKN250 27/23 A3004 RMK AO2 LTG DSNT SE SLP170 CB DSNT SE T02720233 51019
KIAH 221553Z 13004KT 10SM FEW017 SCT028 BKN250 28/24 A3002 RMK AO2 SLP167 T02830239
KIAH 221653Z 14003KT 10SM FEW022 SCT032TCU BKN250 29/23 A3002 RMK AO2 LTG DSNT S SLP164 TCU S T02890228
KIAH 221753Z 12005KT 10SM FEW025 BKN038TCU BKN150 BKN250 29/22 A3000 RMK AO2 LTG DSNT SW SLP157 TCU OVD AND S-W CB DSNT S-SW T02940217 10306 20211 58013
KIAH 221853Z 35007KT 10SM FEW030 BKN040TCU BKN150 BKN250 31/22 A2997 RMK AO2 LTG DSNT SW SLP150 TCU N-E-S CB DSNT SW-W T03110222
KIAH 221953Z 00000KT 10SM BKN045TCU BKN150 BKN250 32/21 A2995 RMK AO2 LTG DSNT S SLP142 TCU OHD AND S VCSH S-W T03170211
KIAH 222053Z 23007KT 10SM SCT047 BKN075 BKN130 BKN250 30/21 A2994 RMK AO2 LTG DSNT ALQDS SLP137 CB DSNT E S NW T03000211 56020
KIAH 222202Z 00000KT 10SM FEW023 SCT048 BKN070 BKN140 BKN250 29/22 A2993 RMK AO2 LTG DSNT NW-NE TSE02 TS MOV N CB DSNT N-NE NW T02940217
KIAH 222253Z 00000KT 10SM TS FEW028CB SCT045 BKN070 BKN150 BKN250 25/22 A2993 RMK AO2 LTG DSNT N TSE02B42 SLP134 OCNL LTGICCG N-E TS N-E MOV N T02500222
KIAH 222353Z 08005KT 10SM FEW043 FEW070 BKN180 BKN250 26/23 A2993 RMK AO2 TSE13 SLP133 TS DSIPTD 60016 T02560233 10322 20250 56004 $
KIAH 230053Z 04003KT 10SM FEW035 SCT190 BKN250 26/23 A2994 RMK AO2 SLP138 T02560228 $
KIAH 230153Z VRB03KT 10SM FEW032 FEW190 SCT250 24/22 A2995 RMK AO2 SLP142 T02390217 $
KIAH 230253Z 15003KT 10SM FEW033 SCT250 24/22 A2997 RMK AO2 SLP148 T02390222 53015 $



Page loaded:  03:01 UTC  |   08:01 PM Pacific  |   09:01 PM Mountain  |   10:01 PM Central  |   11:01 PM Eastern

 

ADVISORIES

FORECASTS

FORECASTS

OBSERVATIONS

USER TOOLS

ABOUT US